createdAt,value
2019-05-07T00:00:43.596Z,28.60
2019-05-07T00:03:09.664Z,27.23
2019-05-07T00:05:37.203Z,27.07
2019-05-07T00:08:04.226Z,26.30
2019-05-07T00:10:33.160Z,25.57
2019-05-07T00:13:02.267Z,25.83
2019-05-07T00:15:32.890Z,25.03
2019-05-07T00:18:00.256Z,24.20
2019-05-07T00:20:27.271Z,22.10
2019-05-07T00:22:54.412Z,23.00
2019-05-07T00:25:22.825Z,23.40
2019-05-07T00:27:52.261Z,23.77
2019-05-07T00:30:19.119Z,21.83
2019-05-07T00:32:46.192Z,21.33
2019-05-07T00:35:16.467Z,22.13
2019-05-07T00:37:48.820Z,20.07
2019-05-07T00:40:36.356Z,22.43
2019-05-07T00:43:12.047Z,21.17
2019-05-07T00:45:48.095Z,21.17
2019-05-07T00:48:15.179Z,20.43
2019-05-07T00:50:44.100Z,19.97
2019-05-07T00:53:13.060Z,19.97
2019-05-07T00:55:42.294Z,20.23
2019-05-07T00:58:09.264Z,20.40
2019-05-07T01:00:36.885Z,19.70
2019-05-07T01:03:04.312Z,20.13
2019-05-07T01:05:32.604Z,19.87
2019-05-07T01:07:59.824Z,18.80
2019-05-07T01:10:26.926Z,20.60
2019-05-07T01:12:55.500Z,20.00
2019-05-07T01:15:30.997Z,18.77
2019-05-07T01:17:52.067Z,19.03
2019-05-07T01:20:21.974Z,20.40
2019-05-07T01:22:49.248Z,18.90
2019-05-07T01:25:19.308Z,19.03
2019-05-07T01:27:46.344Z,19.23
2019-05-07T01:30:13.758Z,18.50
2019-05-07T01:32:55.644Z,18.17
2019-05-07T01:35:28.221Z,18.57
2019-05-07T01:37:55.268Z,17.47
2019-05-07T01:40:23.124Z,19.93
2019-05-07T01:42:50.189Z,18.20
2019-05-07T01:45:17.249Z,18.00
2019-05-07T01:47:44.429Z,17.90
2019-05-07T01:50:13.388Z,16.60
2019-05-07T01:52:42.729Z,17.70
2019-05-07T01:55:09.882Z,16.70
2019-05-07T01:57:36.989Z,20.40
2019-05-07T02:00:06.051Z,19.13
2019-05-07T02:02:43.240Z,18.37
2019-05-07T02:05:26.503Z,18.23
2019-05-07T02:07:57.584Z,17.87
2019-05-07T02:10:49.871Z,17.20
2019-05-07T02:13:17.217Z,18.67
2019-05-07T02:15:57.284Z,19.00
2019-05-07T02:18:13.165Z,19.33
2019-05-07T02:20:42.480Z,19.77
2019-05-07T02:23:09.549Z,20.13
2019-05-07T02:25:36.951Z,19.23
2019-05-07T02:28:04.262Z,19.30
2019-05-07T02:30:34.604Z,18.60
2019-05-07T02:33:03.419Z,19.97
2019-05-07T02:35:33.038Z,21.53
2019-05-07T02:38:19.217Z,20.57
2019-05-07T02:40:53.458Z,21.10
2019-05-07T02:43:22.771Z,21.03
2019-05-07T02:46:17.464Z,21.20
2019-05-07T02:48:33.510Z,20.60
2019-05-07T02:51:06.637Z,19.27
2019-05-07T02:53:57.857Z,19.63
2019-05-07T02:56:25.224Z,19.40
2019-05-07T02:58:52.841Z,17.40
2019-05-07T03:01:22.470Z,18.73
2019-05-07T03:03:49.010Z,18.47
2019-05-07T03:06:16.018Z,16.63
2019-05-07T03:08:44.183Z,16.80
2019-05-07T03:11:14.039Z,19.10
2019-05-07T03:13:43.250Z,16.27
2019-05-07T03:16:12.841Z,16.33
2019-05-07T03:18:43.868Z,15.30
2019-05-07T03:21:16.178Z,16.77
2019-05-07T03:23:53.826Z,19.27
2019-05-07T03:26:23.690Z,19.80
2019-05-07T03:28:55.846Z,16.70
2019-05-07T03:31:46.902Z,18.03
2019-05-07T03:34:25.608Z,15.43
2019-05-07T03:36:55.713Z,16.40
2019-05-07T03:39:23.803Z,15.77
2019-05-07T03:41:52.917Z,16.50
2019-05-07T03:44:26.865Z,15.70
2019-05-07T03:47:02.114Z,16.27
2019-05-07T03:49:29.508Z,15.70
2019-05-07T03:51:56.581Z,16.30
2019-05-07T03:54:24.122Z,18.10
2019-05-07T03:56:52.985Z,15.73
2019-05-07T03:59:23.372Z,16.67
2019-05-07T04:01:53.870Z,18.37
2019-05-07T04:04:23.004Z,16.20
2019-05-07T04:06:53.605Z,17.53
2019-05-07T04:09:19.474Z,17.70
2019-05-07T04:11:46.718Z,20.10
2019-05-07T04:14:14.572Z,18.70
2019-05-07T04:16:44.111Z,17.97
2019-05-07T04:19:13.216Z,16.83
2019-05-07T04:21:39.883Z,19.63
2019-05-07T04:24:23.683Z,16.47
2019-05-07T04:26:57.516Z,15.83
2019-05-07T04:29:24.643Z,14.70
2019-05-07T04:31:53.263Z,17.23
2019-05-07T04:34:44.379Z,16.47
2019-05-07T04:37:13.239Z,15.03
2019-05-07T04:39:53.786Z,14.77
2019-05-07T04:42:24.357Z,15.77
2019-05-07T04:44:53.888Z,15.03
2019-05-07T04:47:36.956Z,15.63
2019-05-07T04:49:53.441Z,14.67
2019-05-07T04:52:33.648Z,15.87
2019-05-07T04:55:04.121Z,14.43
2019-05-07T04:57:33.907Z,15.70
2019-05-07T05:00:03.743Z,14.10
2019-05-07T05:02:45.829Z,14.87
2019-05-07T05:05:15.346Z,14.17
2019-05-07T05:07:49.258Z,13.23
2019-05-07T05:10:16.483Z,13.47
2019-05-07T05:12:43.714Z,13.73
2019-05-07T05:15:13.381Z,14.73
2019-05-07T05:17:50.051Z,14.07
2019-05-07T05:20:10.082Z,14.30
2019-05-07T05:22:47.459Z,15.90
2019-05-07T05:25:36.536Z,13.67
2019-05-07T05:28:03.583Z,13.33
2019-05-07T05:30:37.923Z,13.43
2019-05-07T05:33:04.977Z,13.63
2019-05-07T05:35:32.256Z,12.33
2019-05-07T05:37:59.652Z,14.23
2019-05-07T05:40:28.582Z,13.13
2019-05-07T05:43:02.485Z,13.00
2019-05-07T05:45:42.823Z,14.17
2019-05-07T05:48:09.925Z,12.80
2019-05-07T05:51:04.186Z,12.03
2019-05-07T05:53:43.479Z,13.33
2019-05-07T05:56:19.157Z,12.80
2019-05-07T05:58:57.834Z,11.87
2019-05-07T06:01:43.738Z,12.40
2019-05-07T06:04:32.760Z,11.77
2019-05-07T06:07:11.311Z,12.47
2019-05-07T06:09:38.615Z,12.50
2019-05-07T06:12:28.281Z,13.40
2019-05-07T06:15:01.782Z,14.07
2019-05-07T06:17:47.169Z,13.17
2019-05-07T06:20:35.314Z,12.70
2019-05-07T06:23:16.115Z,12.47
2019-05-07T06:25:44.145Z,13.27
2019-05-07T06:28:12.688Z,12.43
2019-05-07T06:30:41.839Z,12.73
2019-05-07T06:33:08.904Z,13.73
2019-05-07T06:35:35.979Z,11.77
2019-05-07T06:38:04.834Z,12.20
2019-05-07T06:40:42.568Z,15.33
2019-05-07T06:43:24.103Z,12.50
2019-05-07T06:45:55.575Z,12.00
2019-05-07T06:48:38.109Z,11.63
2019-05-07T06:50:57.784Z,10.70
2019-05-07T06:53:29.771Z,10.13
2019-05-07T06:55:58.396Z,10.07
2019-05-07T06:58:32.675Z,10.23
2019-05-07T07:01:24.900Z,8.57
2019-05-07T07:04:27.658Z,8.03
2019-05-07T07:07:01.952Z,7.53
2019-05-07T07:09:38.792Z,6.37
2019-05-07T07:12:09.644Z,8.97
2019-05-07T07:14:36.600Z,8.17
2019-05-07T07:17:03.833Z,6.53
2019-05-07T07:19:32.186Z,6.43
2019-05-07T07:22:02.222Z,7.70
2019-05-07T07:24:29.404Z,6.27
2019-05-07T07:26:56.508Z,7.10
2019-05-07T07:29:26.237Z,6.77
2019-05-07T07:31:56.844Z,6.43
2019-05-07T07:34:25.276Z,6.90
2019-05-07T07:37:08.621Z,7.30
2019-05-07T07:39:33.016Z,6.20
2019-05-07T07:42:04.847Z,6.03
2019-05-07T07:44:32.963Z,5.43
2019-05-07T07:47:02.462Z,6.10
2019-05-07T07:49:29.352Z,5.57
2019-05-07T07:51:56.385Z,3.90
2019-05-07T07:54:23.525Z,3.80
2019-05-07T07:57:06.258Z,4.40
2019-05-07T07:59:45.924Z,4.17
2019-05-07T08:02:37.768Z,5.47
2019-05-07T08:05:05.359Z,5.63
2019-05-07T08:07:33.073Z,4.37
2019-05-07T08:10:02.578Z,5.27
2019-05-07T08:12:29.788Z,4.90
2019-05-07T08:15:13.529Z,4.80
2019-05-07T08:17:26.130Z,4.10
2019-05-07T08:19:53.468Z,4.40
2019-05-07T08:22:22.610Z,4.20
2019-05-07T08:24:51.902Z,4.00
2019-05-07T08:27:19.073Z,4.73
2019-05-07T08:29:46.312Z,3.70
2019-05-07T08:32:29.851Z,3.43
2019-05-07T08:35:02.464Z,4.20
2019-05-07T08:37:31.660Z,4.10
2019-05-07T08:39:58.498Z,3.53
2019-05-07T08:42:25.496Z,2.77
2019-05-07T08:45:02.937Z,2.87
2019-05-07T08:47:42.615Z,1.87
2019-05-07T08:50:11.814Z,2.20
2019-05-07T08:52:39.430Z,3.27
2019-05-07T08:55:07.083Z,3.67
2019-05-07T08:57:34.214Z,2.87
2019-05-07T09:00:04.474Z,3.20
2019-05-07T09:02:32.580Z,3.00
2019-05-07T09:04:59.848Z,3.77
2019-05-07T09:07:26.867Z,3.60
2019-05-07T09:09:53.892Z,3.50
2019-05-07T09:12:23.004Z,3.80
2019-05-07T09:14:50.134Z,3.27
2019-05-07T09:17:17.187Z,3.70
2019-05-07T09:19:51.213Z,4.00
2019-05-07T09:22:15.244Z,3.73
2019-05-07T09:24:42.623Z,4.27
2019-05-07T09:27:28.097Z,3.67
2019-05-07T09:30:13.487Z,3.47
2019-05-07T09:33:03.410Z,4.00
2019-05-07T09:35:39.742Z,3.50
2019-05-07T09:38:06.518Z,3.20
2019-05-07T09:40:33.894Z,3.93
2019-05-07T09:43:02.507Z,3.30
2019-05-07T09:45:32.915Z,3.40
2019-05-07T09:48:02.617Z,3.97
2019-05-07T09:50:29.750Z,4.87
2019-05-07T09:52:56.802Z,3.47
2019-05-07T09:55:24.235Z,4.07
2019-05-07T09:57:52.741Z,3.87
2019-05-07T10:00:22.499Z,4.67
2019-05-07T10:02:49.686Z,4.10
2019-05-07T10:05:17.962Z,3.33
2019-05-07T10:07:46.966Z,3.27
2019-05-07T10:10:14.058Z,3.00
2019-05-07T10:12:52.573Z,3.90
2019-05-07T10:15:22.451Z,3.63
2019-05-07T10:18:01.829Z,3.80
2019-05-07T10:20:29.382Z,3.53
2019-05-07T10:22:56.587Z,3.30
2019-05-07T10:25:26.976Z,3.23
2019-05-07T10:27:54.337Z,3.80
2019-05-07T10:30:21.835Z,4.60
2019-05-07T10:32:49.137Z,4.57
2019-05-07T10:35:17.262Z,3.50
2019-05-07T10:37:44.956Z,3.10
2019-05-07T10:40:13.570Z,3.23
2019-05-07T10:42:43.096Z,3.57
2019-05-07T10:45:32.353Z,3.27
2019-05-07T10:48:15.740Z,3.87
2019-05-07T10:50:45.281Z,3.43
2019-05-07T10:53:12.687Z,3.70
2019-05-07T10:55:41.855Z,3.50
2019-05-07T10:58:08.597Z,3.57
2019-05-07T11:00:35.623Z,3.20
2019-05-07T11:03:03.494Z,3.70
2019-05-07T11:05:32.684Z,3.87
2019-05-07T11:08:02.328Z,3.60
2019-05-07T11:10:29.108Z,4.00
2019-05-07T11:12:56.104Z,4.27
2019-05-07T11:15:23.119Z,4.83
2019-05-07T11:18:09.055Z,3.83
2019-05-07T11:20:48.889Z,4.33
2019-05-07T11:23:05.614Z,3.90
2019-05-07T11:25:33.479Z,3.83
2019-05-07T11:28:02.850Z,3.90
2019-05-07T11:30:31.911Z,3.90
2019-05-07T11:32:58.942Z,4.33
2019-05-07T11:35:26.301Z,4.90
2019-05-07T11:37:53.349Z,4.90
2019-05-07T11:40:22.960Z,4.80
2019-05-07T11:43:18.567Z,4.00
2019-05-07T11:45:58.974Z,5.60
2019-05-07T11:48:26.510Z,5.00
2019-05-07T11:51:09.450Z,5.83
2019-05-07T11:53:37.121Z,4.93
2019-05-07T11:56:05.942Z,5.63
2019-05-07T11:58:33.454Z,5.90
2019-05-07T12:01:05.022Z,4.57
2019-05-07T12:03:32.533Z,4.90
2019-05-07T12:06:02.061Z,5.40
2019-05-07T12:08:39.331Z,5.17
2019-05-07T12:10:58.977Z,5.53
2019-05-07T12:13:26.053Z,5.10
2019-05-07T12:15:53.388Z,5.53
2019-05-07T12:18:22.627Z,5.03
2019-05-07T12:20:49.609Z,5.30
2019-05-07T12:23:16.646Z,4.70
2019-05-07T12:25:44.117Z,5.37
2019-05-07T12:28:13.273Z,5.90
2019-05-07T12:30:51.855Z,5.23
2019-05-07T12:33:54.514Z,5.47
2019-05-07T12:36:22.790Z,5.63
2019-05-07T12:38:50.273Z,6.87
2019-05-07T12:41:29.655Z,7.13
2019-05-07T12:43:58.062Z,6.20
2019-05-07T12:46:25.314Z,6.33
2019-05-07T12:48:52.765Z,6.73
2019-05-07T12:51:33.118Z,6.50
2019-05-07T12:53:54.385Z,6.87
2019-05-07T12:56:21.533Z,7.03
2019-05-07T12:58:48.892Z,6.67
2019-05-07T13:01:35.393Z,5.93
2019-05-07T13:04:07.779Z,6.73
2019-05-07T13:06:41.813Z,7.17
2019-05-07T13:09:09.227Z,6.23
2019-05-07T13:11:36.229Z,6.93
2019-05-07T13:14:03.973Z,6.70
2019-05-07T13:16:32.383Z,6.47
2019-05-07T13:19:01.768Z,7.00
2019-05-07T13:21:28.453Z,7.27
2019-05-07T13:23:56.090Z,7.73
2019-05-07T13:26:24.552Z,7.90
2019-05-07T13:28:53.173Z,7.37
2019-05-07T13:31:22.788Z,6.47
2019-05-07T13:33:52.339Z,7.33
2019-05-07T13:36:19.690Z,7.10
2019-05-07T13:39:04.665Z,6.60
2019-05-07T13:42:03.181Z,6.47
2019-05-07T13:44:55.608Z,6.53
2019-05-07T13:47:26.494Z,6.43
2019-05-07T13:49:54.502Z,7.50
2019-05-07T13:52:23.062Z,6.93
2019-05-07T13:54:52.535Z,7.20
2019-05-07T13:57:22.684Z,7.57
2019-05-07T13:59:52.862Z,6.57
2019-05-07T14:02:22.340Z,7.90
2019-05-07T14:04:49.506Z,7.57
2019-05-07T14:07:16.593Z,8.00
2019-05-07T14:09:44.374Z,7.77
2019-05-07T14:12:12.334Z,7.73
2019-05-07T14:14:42.436Z,7.00
2019-05-07T14:17:12.690Z,7.17
2019-05-07T14:19:42.134Z,6.70
2019-05-07T14:22:16.352Z,6.97
2019-05-07T14:24:38.651Z,7.00
2019-05-07T14:27:05.698Z,7.33
2019-05-07T14:29:32.709Z,5.20
2019-05-07T14:32:08.579Z,5.40
2019-05-07T14:34:55.722Z,5.90
2019-05-07T14:37:32.523Z,6.33
2019-05-07T14:39:59.782Z,5.87
2019-05-07T14:42:34.422Z,6.23
2019-05-07T14:45:01.779Z,6.53
2019-05-07T14:47:28.842Z,6.60
2019-05-07T14:49:55.910Z,7.10
2019-05-07T14:52:32.187Z,7.23
2019-05-07T14:54:52.175Z,7.97
2019-05-07T14:57:29.144Z,7.80
2019-05-07T14:59:57.750Z,8.70
2019-05-07T15:02:34.283Z,9.50
2019-05-07T15:05:02.762Z,9.17
2019-05-07T15:07:30.129Z,9.00
2019-05-07T15:10:06.974Z,9.70
2019-05-07T15:12:39.501Z,9.83
2019-05-07T15:15:21.942Z,8.93
2019-05-07T15:18:32.244Z,8.83
2019-05-07T15:21:02.399Z,8.17
2019-05-07T15:23:39.757Z,8.20
2019-05-07T15:26:07.518Z,9.13
2019-05-07T15:28:35.657Z,8.40
2019-05-07T15:31:09.575Z,8.30
2019-05-07T15:33:38.838Z,7.87
2019-05-07T15:36:13.176Z,7.50
2019-05-07T15:38:40.319Z,8.10
2019-05-07T15:41:07.650Z,9.17
2019-05-07T15:43:46.369Z,9.17
2019-05-07T15:46:25.803Z,8.60
2019-05-07T15:49:12.619Z,8.80
2019-05-07T15:51:41.924Z,8.20
2019-05-07T15:54:13.030Z,9.23
2019-05-07T15:56:40.299Z,8.77
2019-05-07T15:59:09.339Z,8.37
2019-05-07T16:01:36.943Z,8.77
2019-05-07T16:04:04.100Z,7.57
2019-05-07T16:06:32.357Z,7.83
2019-05-07T16:09:02.430Z,8.90
2019-05-07T16:11:32.453Z,8.17
2019-05-07T16:14:14.656Z,7.60
2019-05-07T16:16:45.816Z,8.20
2019-05-07T16:19:23.376Z,8.10
2019-05-07T16:21:51.122Z,8.07
2019-05-07T16:24:18.195Z,8.43
2019-05-07T16:26:46.532Z,8.40
2019-05-07T16:29:14.773Z,8.63
2019-05-07T16:31:43.500Z,9.00
2019-05-07T16:34:12.637Z,8.97
2019-05-07T16:36:41.780Z,8.03
2019-05-07T16:39:09.200Z,7.80
2019-05-07T16:41:36.492Z,7.93
2019-05-07T16:44:04.443Z,8.57
2019-05-07T16:46:31.528Z,8.43
2019-05-07T16:48:58.660Z,7.93
2019-05-07T16:51:25.994Z,8.30
2019-05-07T16:53:53.036Z,9.47
2019-05-07T16:56:22.646Z,8.63
2019-05-07T16:58:53.809Z,7.97
2019-05-07T17:01:24.593Z,7.57
2019-05-07T17:03:54.807Z,8.43
2019-05-07T17:06:22.446Z,9.20
2019-05-07T17:09:13.496Z,7.80
2019-05-07T17:11:43.672Z,8.30
2019-05-07T17:14:12.893Z,8.13
2019-05-07T17:16:40.200Z,9.07
2019-05-07T17:19:08.694Z,9.10
2019-05-07T17:21:38.704Z,9.43
2019-05-07T17:24:06.389Z,8.73
2019-05-07T17:26:35.863Z,8.83
2019-05-07T17:29:03.708Z,8.97
2019-05-07T17:31:31.824Z,8.87
2019-05-07T17:33:58.988Z,9.33
2019-05-07T17:36:26.064Z,9.00
2019-05-07T17:38:53.460Z,8.33
2019-05-07T17:41:24.802Z,9.27
2019-05-07T17:43:49.423Z,9.10
2019-05-07T17:46:17.693Z,9.23
2019-05-07T17:48:44.784Z,9.30
2019-05-07T17:51:34.508Z,9.43
2019-05-07T17:54:01.784Z,9.03
2019-05-07T17:56:28.883Z,8.97
2019-05-07T17:59:02.866Z,8.67
2019-05-07T18:01:42.016Z,8.40
2019-05-07T18:04:13.622Z,9.07
2019-05-07T18:06:42.806Z,9.23
2019-05-07T18:09:12.765Z,9.23
2019-05-07T18:11:39.842Z,8.47
2019-05-07T18:14:07.172Z,9.27
2019-05-07T18:16:54.211Z,9.00
2019-05-07T18:19:22.234Z,10.33
2019-05-07T18:21:49.698Z,11.13
2019-05-07T18:24:17.056Z,11.87
2019-05-07T18:26:44.255Z,9.67
2019-05-07T18:29:12.003Z,9.73
2019-05-07T18:32:04.989Z,9.00
2019-05-07T18:34:32.239Z,9.40
2019-05-07T18:36:59.259Z,9.77
2019-05-07T18:39:27.976Z,9.67
2019-05-07T18:41:55.456Z,9.63
2019-05-07T18:44:22.768Z,10.37
2019-05-07T18:46:49.813Z,10.17
2019-05-07T18:49:16.967Z,9.80
2019-05-07T18:51:44.295Z,11.57
2019-05-07T18:54:13.279Z,10.33
2019-05-07T18:56:42.162Z,10.87
2019-05-07T18:59:09.563Z,10.33
2019-05-07T19:01:38.911Z,10.53
2019-05-07T19:04:06.079Z,12.90
2019-05-07T19:06:33.127Z,12.40
2019-05-07T19:09:00.202Z,10.60
2019-05-07T19:11:27.728Z,10.40
2019-05-07T19:13:56.144Z,9.97
2019-05-07T19:16:23.818Z,10.87
2019-05-07T19:18:52.511Z,10.17
2019-05-07T19:21:22.223Z,10.43
2019-05-07T19:23:48.938Z,10.43
2019-05-07T19:26:15.939Z,9.80
2019-05-07T19:28:43.679Z,11.13
2019-05-07T19:31:14.212Z,11.10
2019-05-07T19:33:43.594Z,12.77
2019-05-07T19:36:10.604Z,11.30
2019-05-07T19:38:37.647Z,12.37
2019-05-07T19:41:07.283Z,11.70
2019-05-07T19:43:36.321Z,11.97
2019-05-07T19:46:03.311Z,14.23
2019-05-07T19:48:32.286Z,12.60
2019-05-07T19:50:59.620Z,15.03
2019-05-07T19:53:26.863Z,15.90
2019-05-07T19:56:06.410Z,15.17
2019-05-07T19:58:33.979Z,14.33
2019-05-07T20:01:01.735Z,14.43
2019-05-07T20:03:28.752Z,15.40
2019-05-07T20:05:56.243Z,14.13
2019-05-07T20:08:23.350Z,13.80
2019-05-07T20:10:56.362Z,13.37
2019-05-07T20:13:23.423Z,13.87
2019-05-07T20:15:55.895Z,13.53
2019-05-07T20:18:23.011Z,13.13
2019-05-07T20:20:50.489Z,13.43
2019-05-07T20:23:27.001Z,14.03
2019-05-07T20:26:06.308Z,12.63
2019-05-07T20:28:33.996Z,13.63
2019-05-07T20:31:01.130Z,14.17
2019-05-07T20:33:29.036Z,15.10
2019-05-07T20:35:56.416Z,14.77
2019-05-07T20:38:23.768Z,15.63
2019-05-07T20:40:52.147Z,15.50
2019-05-07T20:43:19.920Z,14.27
2019-05-07T20:45:46.932Z,14.27
2019-05-07T20:48:14.343Z,14.63
2019-05-07T20:50:42.431Z,15.67
2019-05-07T20:53:09.544Z,14.27
2019-05-07T20:55:47.577Z,16.20
2019-05-07T20:58:14.628Z,18.07
2019-05-07T21:00:43.397Z,16.20
2019-05-07T21:03:20.397Z,16.53
2019-05-07T21:05:49.460Z,14.37
2019-05-07T21:08:16.450Z,15.90
2019-05-07T21:10:43.548Z,13.30
2019-05-07T21:13:26.399Z,14.70
2019-05-07T21:15:41.891Z,14.83
2019-05-07T21:18:09.236Z,15.00
2019-05-07T21:20:36.312Z,14.87
2019-05-07T21:23:03.562Z,14.53
2019-05-07T21:25:42.279Z,14.20
2019-05-07T21:28:02.001Z,14.93
2019-05-07T21:30:28.612Z,14.23
2019-05-07T21:32:55.637Z,14.40
2019-05-07T21:35:23.800Z,13.73
2019-05-07T21:37:52.410Z,15.47
2019-05-07T21:40:19.704Z,16.10
2019-05-07T21:42:46.732Z,15.30
2019-05-07T21:45:14.624Z,16.67
2019-05-07T21:47:42.879Z,14.93
2019-05-07T21:50:12.435Z,15.27
2019-05-07T21:52:42.667Z,16.03
2019-05-07T21:55:35.839Z,16.53
2019-05-07T21:58:22.531Z,16.53
2019-05-07T22:01:09.357Z,15.63
2019-05-07T22:03:36.524Z,17.17
2019-05-07T22:06:03.637Z,15.40
2019-05-07T22:08:32.605Z,14.83
2019-05-07T22:11:02.476Z,14.67
2019-05-07T22:13:29.476Z,14.37
2019-05-07T22:15:56.489Z,14.53
2019-05-07T22:18:23.505Z,14.47
2019-05-07T22:20:52.200Z,14.70
2019-05-07T22:23:19.512Z,13.43
2019-05-07T22:25:46.565Z,13.37
2019-05-07T22:28:13.840Z,14.00
2019-05-07T22:31:02.368Z,15.37
2019-05-07T22:33:39.053Z,14.50
2019-05-07T22:36:07.238Z,14.63
2019-05-07T22:38:34.987Z,14.23
2019-05-07T22:41:02.199Z,13.43
2019-05-07T22:43:31.709Z,13.60
2019-05-07T22:45:58.524Z,14.57
2019-05-07T22:48:25.681Z,14.03
2019-05-07T22:50:55.298Z,13.33
2019-05-07T22:53:22.333Z,14.53
2019-05-07T22:55:49.703Z,14.73
2019-05-07T22:58:25.460Z,14.93
2019-05-07T23:00:57.117Z,16.03
2019-05-07T23:03:24.168Z,14.53
2019-05-07T23:05:53.139Z,13.57
2019-05-07T23:08:22.184Z,15.10
2019-05-07T23:10:52.457Z,12.83
2019-05-07T23:13:18.636Z,13.47
2019-05-07T23:15:45.692Z,12.13
2019-05-07T23:18:13.130Z,13.23
2019-05-07T23:20:42.704Z,13.50
2019-05-07T23:23:13.941Z,12.87
2019-05-07T23:25:38.937Z,13.43
2019-05-07T23:28:07.811Z,14.00
2019-05-07T23:30:34.849Z,14.47
2019-05-07T23:33:02.436Z,14.33
2019-05-07T23:35:32.722Z,16.93
2019-05-07T23:37:59.472Z,13.60
2019-05-07T23:40:41.858Z,12.83
2019-05-07T23:43:12.300Z,13.57
2019-05-07T23:45:42.001Z,14.00
2019-05-07T23:48:08.698Z,13.53
2019-05-07T23:50:35.844Z,12.17
2019-05-07T23:53:02.896Z,12.23
2019-05-07T23:55:31.832Z,12.67
2019-05-07T23:57:59.241Z,12.77
